createdAt,value
2022-12-17T00:01:53.486Z,78.10
2022-12-17T00:04:39.451Z,77.80
2022-12-17T00:07:25.249Z,77.80
2022-12-17T00:10:10.864Z,77.30
2022-12-17T00:13:00.340Z,77.90
2022-12-17T00:15:49.823Z,78.00
2022-12-17T00:18:40.181Z,78.20
2022-12-17T00:21:31.085Z,77.40
2022-12-17T00:24:19.171Z,77.40
2022-12-17T00:27:08.484Z,77.20
2022-12-17T00:29:56.346Z,76.90
2022-12-17T00:32:47.282Z,76.20
2022-12-17T00:35:38.636Z,76.00
2022-12-17T00:38:24.909Z,76.10
2022-12-17T00:41:10.835Z,76.00
2022-12-17T00:43:53.680Z,76.30
2022-12-17T00:46:42.000Z,75.80
2022-12-17T00:49:29.791Z,76.10
2022-12-17T00:52:17.587Z,76.60
2022-12-17T00:55:03.173Z,75.90
2022-12-17T00:57:48.731Z,76.10
2022-12-17T01:00:34.956Z,76.70
2022-12-17T01:03:25.232Z,76.50
2022-12-17T01:06:11.405Z,76.70
2022-12-17T01:09:13.888Z,77.30
2022-12-17T01:11:59.742Z,77.20
2022-12-17T01:14:47.406Z,76.80
2022-12-17T01:17:33.105Z,76.30
2022-12-17T01:20:19.187Z,75.70
2022-12-17T01:23:05.827Z,75.70
2022-12-17T01:25:52.771Z,76.10
2022-12-17T01:28:43.093Z,76.00
2022-12-17T01:31:35.021Z,75.70
2022-12-17T01:34:21.264Z,75.80
2022-12-17T01:37:07.271Z,75.70
2022-12-17T01:39:55.186Z,74.90
2022-12-17T01:42:42.589Z,75.40
2022-12-17T01:45:31.803Z,75.30
2022-12-17T01:48:21.237Z,76.30
2022-12-17T01:51:09.236Z,75.90
2022-12-17T01:53:58.515Z,75.70
2022-12-17T01:56:45.131Z,76.40
2022-12-17T01:59:38.342Z,77.10
2022-12-17T02:02:25.274Z,76.80
2022-12-17T02:05:11.207Z,77.30
2022-12-17T02:08:09.619Z,77.70
2022-12-17T02:11:02.869Z,77.60
2022-12-17T02:13:53.259Z,77.30
2022-12-17T02:16:45.074Z,77.70
2022-12-17T02:19:42.645Z,78.00
2022-12-17T02:22:36.536Z,79.00
2022-12-17T02:25:30.792Z,78.40
2022-12-17T02:28:18.284Z,78.80
2022-12-17T02:31:04.786Z,78.90
2022-12-17T02:33:52.317Z,79.40
2022-12-17T02:36:38.066Z,79.50
2022-12-17T02:39:23.523Z,79.60
2022-12-17T02:42:12.374Z,79.70
2022-12-17T02:45:02.169Z,79.70
2022-12-17T02:47:47.980Z,80.10
2022-12-17T02:50:33.610Z,80.20
2022-12-17T02:53:21.700Z,80.40
2022-12-17T02:56:07.698Z,80.70
2022-12-17T02:58:55.918Z,81.20
2022-12-17T03:01:43.090Z,81.30
2022-12-17T03:04:28.907Z,81.50
2022-12-17T03:07:14.567Z,81.20
2022-12-17T03:10:01.145Z,81.40
2022-12-17T03:12:51.344Z,81.50
2022-12-17T03:15:36.984Z,82.60
2022-12-17T03:18:24.166Z,82.10
2022-12-17T03:21:11.791Z,82.60
2022-12-17T03:23:57.352Z,82.10
2022-12-17T03:26:42.693Z,82.50
2022-12-17T03:29:28.563Z,82.40
2022-12-17T03:32:14.075Z,83.00
2022-12-17T03:35:01.166Z,82.80
2022-12-17T03:37:46.901Z,82.70
2022-12-17T03:40:34.934Z,83.00
2022-12-17T03:43:25.559Z,82.90
2022-12-17T03:46:11.851Z,83.10
2022-12-17T03:48:57.601Z,83.40
2022-12-17T03:51:44.671Z,84.00
2022-12-17T03:54:35.589Z,84.20
2022-12-17T03:57:21.169Z,83.60
2022-12-17T04:00:06.705Z,83.90
2022-12-17T04:02:58.646Z,84.10
2022-12-17T04:05:44.603Z,84.20
2022-12-17T04:08:31.497Z,84.50
2022-12-17T04:11:17.063Z,84.50
2022-12-17T04:14:02.424Z,84.70
2022-12-17T04:16:48.205Z,84.90
2022-12-17T04:19:33.947Z,85.30
2022-12-17T04:22:27.846Z,85.10
2022-12-17T04:25:15.125Z,85.10
2022-12-17T04:28:00.523Z,85.00
2022-12-17T04:30:46.070Z,85.50
2022-12-17T04:33:40.144Z,85.80
2022-12-17T04:36:25.808Z,85.40
2022-12-17T04:39:11.524Z,85.50
2022-12-17T04:41:58.266Z,85.30
2022-12-17T04:44:43.695Z,85.00
2022-12-17T04:47:29.117Z,85.50
2022-12-17T04:50:14.528Z,85.30
2022-12-17T04:53:00.281Z,85.30
2022-12-17T04:55:45.895Z,85.60
2022-12-17T04:58:35.074Z,85.60
2022-12-17T05:01:20.728Z,86.30
2022-12-17T05:04:14.509Z,86.20
2022-12-17T05:07:11.596Z,86.60
2022-12-17T05:09:57.360Z,86.10
2022-12-17T05:12:42.999Z,85.80
2022-12-17T05:15:29.835Z,86.20
2022-12-17T05:18:23.826Z,85.90
2022-12-17T05:21:10.654Z,86.40
2022-12-17T05:23:56.420Z,86.40
2022-12-17T05:26:43.960Z,86.50
2022-12-17T05:29:30.422Z,86.70
2022-12-17T05:32:18.156Z,86.60
2022-12-17T05:35:03.914Z,86.90
2022-12-17T05:37:51.807Z,86.90
2022-12-17T05:40:37.649Z,86.80
2022-12-17T05:43:25.218Z,87.20
2022-12-17T05:46:13.418Z,87.50
2022-12-17T05:49:05.835Z,87.50
2022-12-17T05:51:51.446Z,87.30
2022-12-17T05:54:36.852Z,87.20
2022-12-17T05:57:22.741Z,88.00
2022-12-17T06:00:10.836Z,87.70
2022-12-17T06:02:59.573Z,87.50
2022-12-17T06:05:46.745Z,87.70
2022-12-17T06:08:32.308Z,88.00
2022-12-17T06:11:19.057Z,88.20
2022-12-17T06:14:05.790Z,88.40
2022-12-17T06:16:51.210Z,88.50
2022-12-17T06:19:36.731Z,88.40
2022-12-17T06:22:23.348Z,88.20
2022-12-17T06:25:08.995Z,87.80
2022-12-17T06:27:54.335Z,87.70
2022-12-17T06:30:40.082Z,87.60
2022-12-17T06:33:27.355Z,88.40
2022-12-17T06:36:21.276Z,87.80
2022-12-17T06:39:09.160Z,86.70
2022-12-17T06:42:00.324Z,85.90
2022-12-17T06:44:51.806Z,85.60
2022-12-17T06:47:37.867Z,85.80
2022-12-17T06:50:26.657Z,86.10
2022-12-17T06:53:19.668Z,85.30
2022-12-17T06:56:09.192Z,85.30
2022-12-17T06:58:54.613Z,85.60
2022-12-17T07:01:41.597Z,85.70
2022-12-17T07:04:27.749Z,85.60
2022-12-17T07:07:13.437Z,86.40
2022-12-17T07:09:58.813Z,86.10
2022-12-17T07:12:45.908Z,86.10
2022-12-17T07:15:31.695Z,85.60
2022-12-17T07:18:19.269Z,85.40
2022-12-17T07:21:06.190Z,85.10
2022-12-17T07:23:52.313Z,84.70
2022-12-17T07:26:37.715Z,85.30
2022-12-17T07:29:24.481Z,85.20
2022-12-17T07:32:10.111Z,84.90
2022-12-17T07:34:56.019Z,85.10
2022-12-17T07:37:41.618Z,85.00
2022-12-17T07:40:30.476Z,84.90
2022-12-17T07:43:15.938Z,84.50
2022-12-17T07:46:02.923Z,84.10
2022-12-17T07:48:50.874Z,83.70
2022-12-17T07:51:36.393Z,83.60
2022-12-17T07:54:22.041Z,83.90
2022-12-17T07:57:07.739Z,83.50
2022-12-17T07:59:53.013Z,82.40
2022-12-17T08:02:40.212Z,82.00
2022-12-17T08:05:28.344Z,81.60
2022-12-17T08:08:14.144Z,81.00
2022-12-17T08:11:07.391Z,81.40
2022-12-17T08:13:52.679Z,81.30
2022-12-17T08:16:38.292Z,80.30
2022-12-17T08:19:25.371Z,80.50
2022-12-17T08:22:11.135Z,80.20
2022-12-17T08:24:56.533Z,79.70
2022-12-17T08:27:41.928Z,79.20
2022-12-17T08:30:28.660Z,78.40
2022-12-17T08:33:14.216Z,78.50
2022-12-17T08:36:00.893Z,77.90
2022-12-17T08:38:46.137Z,77.20
2022-12-17T08:41:31.758Z,77.20
2022-12-17T08:44:17.346Z,76.20
2022-12-17T08:47:02.812Z,76.90
2022-12-17T08:49:48.379Z,76.90
2022-12-17T08:52:40.314Z,76.80
2022-12-17T08:55:28.450Z,75.80
2022-12-17T08:58:14.810Z,76.00
2022-12-17T09:01:00.561Z,75.50
2022-12-17T09:03:46.369Z,76.30
2022-12-17T09:06:37.355Z,76.20
2022-12-17T09:09:26.170Z,75.10
2022-12-17T09:12:11.576Z,74.70
2022-12-17T09:14:57.214Z,74.30
2022-12-17T09:17:43.212Z,73.60
2022-12-17T09:20:29.938Z,72.70
2022-12-17T09:23:15.870Z,73.60
2022-12-17T09:26:10.245Z,73.50
2022-12-17T09:28:55.687Z,73.00
2022-12-17T09:31:42.496Z,73.20
2022-12-17T09:34:31.090Z,72.70
2022-12-17T09:37:16.613Z,72.00
2022-12-17T09:40:04.404Z,71.90
2022-12-17T09:42:59.831Z,72.30
2022-12-17T09:45:55.011Z,72.20
2022-12-17T09:48:50.050Z,72.50
2022-12-17T09:51:41.035Z,72.10
2022-12-17T09:54:37.743Z,72.00
2022-12-17T09:57:24.918Z,72.10
2022-12-17T10:00:11.636Z,71.70
2022-12-17T10:02:58.563Z,71.70
2022-12-17T10:05:48.000Z,71.70
2022-12-17T10:08:37.050Z,70.10
2022-12-17T10:11:34.912Z,70.90
2022-12-17T10:14:22.200Z,71.00
2022-12-17T10:17:12.039Z,70.50
2022-12-17T10:20:00.641Z,70.50
2022-12-17T10:22:46.624Z,70.80
2022-12-17T10:25:36.038Z,70.90
2022-12-17T10:28:24.828Z,70.30
2022-12-17T10:31:10.801Z,70.20
2022-12-17T10:33:58.955Z,70.10
2022-12-17T10:36:47.704Z,68.20
2022-12-17T10:39:36.831Z,68.00
2022-12-17T10:42:22.496Z,68.60
2022-12-17T10:45:08.166Z,68.50
2022-12-17T10:47:53.926Z,68.20
2022-12-17T10:50:42.417Z,68.50
2022-12-17T10:53:37.495Z,68.10
2022-12-17T10:56:24.239Z,67.30
2022-12-17T10:59:12.472Z,67.10
2022-12-17T11:01:59.069Z,66.20
2022-12-17T11:04:47.040Z,66.60
2022-12-17T11:07:38.508Z,66.90
2022-12-17T11:10:32.021Z,67.80
2022-12-17T11:13:21.445Z,67.40
2022-12-17T11:16:09.839Z,67.60
2022-12-17T11:19:03.240Z,67.00
2022-12-17T11:21:54.009Z,66.70
2022-12-17T11:24:45.166Z,64.50
2022-12-17T11:27:36.923Z,65.80
2022-12-17T11:30:30.936Z,65.40
2022-12-17T11:33:28.232Z,65.30
2022-12-17T11:36:18.478Z,65.60
2022-12-17T11:39:15.122Z,65.10
2022-12-17T11:42:12.025Z,64.80
2022-12-17T11:45:03.585Z,64.70
2022-12-17T11:48:01.724Z,64.70
2022-12-17T11:50:56.491Z,65.20
2022-12-17T11:54:02.690Z,65.10
2022-12-17T11:56:56.611Z,65.10
2022-12-17T12:02:57.851Z,64.10
2022-12-17T12:05:56.661Z,64.10
2022-12-17T12:08:48.207Z,65.50
2022-12-17T12:11:44.648Z,64.20
2022-12-17T12:14:46.048Z,65.30
2022-12-17T12:17:57.198Z,64.80
2022-12-17T12:21:02.982Z,64.70
2022-12-17T12:23:57.812Z,64.60
2022-12-17T12:26:51.188Z,63.30
2022-12-17T12:29:46.513Z,63.40
2022-12-17T12:32:37.288Z,63.50
2022-12-17T12:35:32.211Z,63.40
2022-12-17T12:38:20.960Z,64.10
2022-12-17T12:41:13.007Z,64.50
2022-12-17T12:44:06.386Z,65.30
2022-12-17T12:46:56.495Z,64.80
2022-12-17T12:49:47.462Z,64.10
2022-12-17T12:52:39.499Z,63.00
2022-12-17T12:55:25.683Z,63.30
2022-12-17T12:58:16.721Z,64.10
2022-12-17T13:01:13.111Z,64.80
2022-12-17T13:04:08.866Z,64.80
2022-12-17T13:06:44.096Z,64.50
2022-12-17T13:09:23.284Z,65.20
2022-12-17T13:11:56.017Z,64.90
2022-12-17T13:14:29.364Z,63.50
2022-12-17T13:17:02.369Z,65.10
2022-12-17T13:19:37.930Z,65.70
2022-12-17T13:22:27.962Z,64.60
2022-12-17T13:25:15.290Z,65.30
2022-12-17T13:27:43.861Z,64.80
2022-12-17T13:30:33.847Z,64.60
2022-12-17T13:33:25.983Z,64.60
2022-12-17T13:36:04.608Z,65.60
2022-12-17T13:38:43.617Z,64.50
2022-12-17T13:41:14.861Z,64.50
2022-12-17T13:43:46.644Z,65.10
2022-12-17T13:46:23.038Z,65.30
2022-12-17T13:48:56.344Z,65.10
2022-12-17T13:51:26.962Z,64.20
2022-12-17T13:53:57.932Z,64.30
2022-12-17T13:56:32.707Z,65.00
2022-12-17T13:59:09.311Z,64.90
2022-12-17T14:01:46.460Z,65.20
2022-12-17T14:04:22.256Z,65.60
2022-12-17T14:06:51.888Z,65.90
2022-12-17T14:09:22.821Z,66.20
2022-12-17T14:12:11.917Z,66.80
2022-12-17T14:14:41.740Z,66.90
2022-12-17T14:17:18.409Z,67.30
2022-12-17T14:19:47.382Z,67.10
2022-12-17T14:22:21.497Z,67.60
2022-12-17T14:24:49.761Z,67.60
2022-12-17T14:27:27.569Z,67.50
2022-12-17T14:29:56.980Z,67.50
2022-12-17T14:32:31.488Z,68.10
2022-12-17T14:35:00.992Z,67.80
2022-12-17T14:37:30.178Z,68.20
2022-12-17T14:40:03.797Z,68.70
2022-12-17T14:42:36.901Z,69.10
2022-12-17T14:45:07.885Z,69.50
2022-12-17T14:47:37.916Z,69.80
2022-12-17T14:50:25.373Z,70.10
2022-12-17T14:52:55.407Z,69.90
2022-12-17T14:55:37.586Z,70.10
2022-12-17T14:58:19.626Z,70.60
2022-12-17T15:00:50.947Z,71.00
2022-12-17T15:03:25.247Z,71.00
2022-12-17T15:05:56.990Z,71.40
2022-12-17T15:08:25.518Z,71.60
2022-12-17T15:10:53.663Z,71.60
2022-12-17T15:13:23.125Z,71.90
2022-12-17T15:15:51.230Z,72.30
2022-12-17T15:18:19.397Z,72.30
2022-12-17T15:20:47.752Z,72.30
2022-12-17T15:23:17.825Z,72.10
2022-12-17T15:25:49.821Z,72.20
2022-12-17T15:28:19.063Z,72.80
2022-12-17T15:30:49.998Z,73.30
2022-12-17T15:33:20.600Z,74.00
2022-12-17T15:35:48.740Z,74.20
2022-12-17T15:38:17.014Z,74.90
2022-12-17T15:40:45.118Z,75.00
2022-12-17T15:43:15.840Z,75.30
2022-12-17T15:45:45.804Z,75.10
2022-12-17T15:48:18.417Z,75.50
2022-12-17T15:50:50.650Z,75.50
2022-12-17T15:53:18.760Z,76.50
2022-12-17T15:55:46.932Z,76.80
2022-12-17T15:58:16.235Z,77.20
2022-12-17T16:00:44.302Z,77.60
2022-12-17T16:03:26.472Z,78.00
2022-12-17T16:06:07.110Z,78.60
2022-12-17T16:15:30.114Z,79.30
2022-12-17T16:22:10.174Z,79.70
2022-12-17T16:25:30.532Z,79.30
2022-12-17T16:39:17.289Z,81.50
2022-12-17T16:41:47.516Z,81.90
2022-12-17T16:44:16.282Z,82.00
2022-12-17T16:46:46.330Z,81.70
2022-12-17T16:49:18.695Z,81.70
2022-12-17T16:51:47.924Z,81.40
2022-12-17T16:54:21.880Z,81.40
2022-12-17T16:56:51.080Z,81.60
2022-12-17T16:59:19.723Z,81.40
2022-12-17T17:01:51.050Z,80.90
2022-12-17T17:04:21.804Z,81.80
2022-12-17T17:06:52.409Z,82.10
2022-12-17T17:09:22.508Z,82.10
2022-12-17T17:11:52.023Z,81.60
2022-12-17T17:14:20.783Z,81.00
2022-12-17T17:16:48.894Z,81.30
2022-12-17T17:19:17.379Z,82.30
2022-12-17T17:21:51.703Z,83.50
2022-12-17T17:24:24.136Z,84.40
2022-12-17T17:26:53.245Z,85.30
2022-12-17T17:29:21.455Z,86.70
2022-12-17T17:34:37.819Z,87.90
2022-12-17T17:37:05.892Z,87.70
2022-12-17T17:39:37.664Z,88.00
2022-12-17T17:42:06.339Z,87.80
2022-12-17T17:44:34.699Z,87.90
2022-12-17T17:47:03.110Z,88.20
2022-12-17T17:49:31.697Z,88.70
2022-12-17T17:52:15.097Z,89.00
2022-12-17T17:54:45.061Z,88.90
2022-12-17T17:57:13.366Z,88.90
2022-12-17T17:59:41.483Z,89.50
2022-12-17T18:02:11.927Z,89.40
2022-12-17T18:04:40.862Z,89.90
2022-12-17T18:07:27.684Z,90.00
2022-12-17T18:09:59.620Z,89.70
2022-12-17T18:12:47.618Z,90.40
2022-12-17T18:15:18.044Z,90.30
2022-12-17T18:17:48.951Z,90.70
2022-12-17T18:20:17.906Z,91.70
2022-12-17T18:22:47.263Z,91.80
2022-12-17T18:25:17.822Z,91.60
2022-12-17T18:27:45.984Z,92.10
2022-12-17T18:30:16.209Z,91.80
2022-12-17T18:32:44.631Z,92.30
2022-12-17T18:35:13.032Z,93.30
2022-12-17T18:37:41.199Z,92.50
2022-12-17T18:40:10.850Z,92.10
2022-12-17T18:43:00.934Z,91.80
2022-12-17T18:45:29.140Z,91.50
2022-12-17T18:47:57.187Z,91.30
2022-12-17T18:50:25.308Z,91.10
2022-12-17T18:52:53.383Z,91.00
2022-12-17T18:55:21.565Z,90.90
2022-12-17T18:57:50.966Z,91.00
2022-12-17T19:00:19.444Z,91.00
2022-12-17T19:02:49.940Z,91.20
2022-12-17T19:05:18.158Z,91.10
2022-12-17T19:07:48.937Z,91.30
2022-12-17T19:10:17.055Z,91.60
2022-12-17T19:12:45.166Z,92.00
2022-12-17T19:15:14.542Z,91.90
2022-12-17T19:17:42.621Z,91.50
2022-12-17T19:20:11.637Z,91.80
2022-12-17T19:22:39.877Z,91.90
2022-12-17T19:25:08.425Z,91.50
2022-12-17T19:27:36.468Z,91.80
2022-12-17T19:30:05.215Z,91.90
2022-12-17T19:32:34.598Z,91.50
2022-12-17T19:35:02.784Z,91.50
2022-12-17T19:37:30.859Z,91.40
2022-12-17T19:39:58.990Z,91.60
2022-12-17T19:42:33.455Z,91.80
2022-12-17T19:45:05.193Z,92.30
2022-12-17T19:47:34.719Z,92.00
2022-12-17T19:50:02.831Z,92.50
2022-12-17T19:52:30.976Z,92.70
2022-12-17T19:54:59.104Z,92.40
2022-12-17T19:57:27.144Z,91.80
2022-12-17T19:59:55.680Z,92.20
2022-12-17T20:02:32.301Z,92.20
2022-12-17T20:05:02.508Z,92.40
2022-12-17T20:07:30.605Z,92.30
2022-12-17T20:09:58.734Z,91.90
2022-12-17T20:12:26.798Z,92.00
2022-12-17T20:14:54.826Z,92.20
2022-12-17T20:17:23.001Z,92.30
2022-12-17T20:19:53.266Z,92.30
2022-12-17T20:22:23.319Z,92.10
2022-12-17T20:24:53.101Z,92.40
2022-12-17T20:27:21.163Z,92.50
2022-12-17T20:29:49.251Z,92.40
2022-12-17T20:32:19.529Z,92.20
2022-12-17T20:34:48.219Z,91.70
2022-12-17T20:37:16.292Z,91.70
2022-12-17T20:39:45.746Z,91.30
2022-12-17T20:42:13.894Z,91.50
2022-12-17T20:44:48.607Z,91.50
2022-12-17T20:47:19.789Z,91.40
2022-12-17T20:49:47.851Z,91.60
2022-12-17T20:52:15.948Z,91.60
2022-12-17T20:54:45.494Z,91.50
2022-12-17T20:57:13.567Z,91.20
2022-12-17T20:59:41.680Z,91.60
2022-12-17T21:02:11.344Z,91.80
2022-12-17T21:04:39.545Z,92.10
2022-12-17T21:07:07.590Z,91.80
2022-12-17T21:09:35.615Z,91.60
2022-12-17T21:12:06.013Z,91.60
2022-12-17T21:14:36.529Z,91.60
2022-12-17T21:17:07.213Z,91.70
2022-12-17T21:19:35.428Z,91.30
2022-12-17T21:22:04.554Z,91.70
2022-12-17T21:24:32.645Z,92.40
2022-12-17T21:27:00.742Z,92.10
2022-12-17T21:29:30.130Z,92.00
2022-12-17T21:31:58.175Z,91.80
2022-12-17T21:34:29.168Z,91.80
2022-12-17T21:36:59.706Z,91.50
2022-12-17T21:39:27.857Z,91.90
2022-12-17T21:42:13.359Z,91.30
2022-12-17T21:44:42.946Z,91.00
2022-12-17T21:47:11.148Z,91.00
2022-12-17T21:49:39.303Z,90.40
2022-12-17T21:52:11.114Z,90.50
2022-12-17T21:54:39.497Z,90.80
2022-12-17T21:57:08.384Z,90.50
2022-12-17T21:59:36.413Z,90.20
2022-12-17T22:02:10.560Z,90.20
2022-12-17T22:04:38.810Z,90.70
2022-12-17T22:07:10.036Z,91.00
2022-12-17T22:09:58.216Z,91.40
2022-12-17T22:12:51.265Z,91.20
2022-12-17T22:15:19.427Z,91.00
2022-12-17T22:17:49.343Z,91.00
2022-12-17T22:20:17.528Z,90.90
2022-12-17T22:22:46.204Z,90.30
2022-12-17T22:25:14.735Z,90.20
2022-12-17T22:27:43.741Z,90.30
2022-12-17T22:30:33.675Z,90.30
2022-12-17T22:33:12.362Z,89.80
2022-12-17T22:38:13.312Z,89.20
2022-12-17T22:42:22.557Z,88.70
2022-12-17T22:44:49.373Z,88.90
2022-12-17T22:44:51.592Z,89.00
2022-12-17T22:47:21.047Z,89.10
2022-12-17T22:49:50.498Z,89.30
2022-12-17T22:52:20.224Z,88.60
2022-12-17T22:54:49.126Z,88.70
2022-12-17T22:57:36.431Z,88.80
2022-12-17T23:00:10.347Z,89.10
2022-12-17T23:02:38.694Z,89.30
2022-12-17T23:05:08.884Z,91.50
2022-12-17T23:07:36.998Z,90.00
2022-12-17T23:10:06.161Z,88.40
2022-12-17T23:12:52.399Z,87.90
2022-12-17T23:15:22.931Z,88.00
2022-12-17T23:17:52.483Z,87.50
2022-12-17T23:20:22.297Z,87.10
2022-12-17T23:22:50.476Z,87.50
2022-12-17T23:25:20.650Z,87.60
2022-12-17T23:27:49.363Z,87.20
2022-12-17T23:30:18.441Z,87.60
2022-12-17T23:32:46.758Z,87.40
2022-12-17T23:35:15.151Z,86.60
2022-12-17T23:37:44.672Z,86.40
2022-12-17T23:40:15.563Z,86.50
2022-12-17T23:42:43.760Z,86.40
2022-12-17T23:45:12.138Z,86.20
2022-12-17T23:47:41.579Z,86.10
2022-12-17T23:50:11.073Z,87.40
2022-12-17T23:52:39.432Z,86.60
2022-12-17T23:55:11.456Z,86.60
2022-12-17T23:57:39.758Z,86.30
